sensor_id;sensor_type;location;lat;lon;timestamp;pressure;altitude;pressure_sealevel;temperature;humidity
65329;BME280;51941;52.210;5.158;2022-10-31T00:00:31;102010.19;;;11.76;86.70
65329;BME280;51941;52.210;5.158;2022-10-31T00:02:58;102011.84;;;11.77;86.64
65329;BME280;51941;52.210;5.158;2022-10-31T00:05:26;102010.63;;;11.79;86.63
65329;BME280;51941;52.210;5.158;2022-10-31T00:07:53;102011.22;;;11.81;86.80
65329;BME280;51941;52.210;5.158;2022-10-31T00:10:20;102013.88;;;11.81;86.74
65329;BME280;51941;52.210;5.158;2022-10-31T00:12:46;102017.16;;;11.84;86.77
65329;BME280;51941;52.210;5.158;2022-10-31T00:15:13;102016.31;;;11.83;86.93
65329;BME280;51941;52.210;5.158;2022-10-31T00:17:40;102018.97;;;11.83;86.96
65329;BME280;51941;52.210;5.158;2022-10-31T00:20:08;102020.59;;;11.84;87.02
65329;BME280;51941;52.210;5.158;2022-10-31T00:22:36;102017.72;;;11.86;87.07
65329;BME280;51941;52.210;5.158;2022-10-31T00:25:03;102023.84;;;11.86;86.93
65329;BME280;51941;52.210;5.158;2022-10-31T00:27:29;101991.28;;;11.66;86.83
65329;BME280;51941;52.210;5.158;2022-10-31T00:29:56;102020.16;;;11.87;86.68
65329;BME280;51941;52.210;5.158;2022-10-31T00:32:23;102030.56;;;11.89;87.00
65329;BME280;51941;52.210;5.158;2022-10-31T00:34:50;102034.25;;;11.88;87.01
65329;BME280;51941;52.210;5.158;2022-10-31T00:37:17;102004.53;;;11.72;86.78
65329;BME280;51941;52.210;5.158;2022-10-31T00:39:46;102032.22;;;11.90;86.98
65329;BME280;51941;52.210;5.158;2022-10-31T00:42:15;102024.47;;;11.88;86.73
65329;BME280;51941;52.210;5.158;2022-10-31T00:44:44;102014.88;;;11.87;86.92
65329;BME280;51941;52.210;5.158;2022-10-31T00:47:10;102024.66;;;11.87;86.70
65329;BME280;51941;52.210;5.158;2022-10-31T00:49:37;102019.78;;;11.84;86.77
65329;BME280;51941;52.210;5.158;2022-10-31T00:52:04;102020.41;;;11.79;87.31
65329;BME280;51941;52.210;5.158;2022-10-31T00:54:31;102016.56;;;11.68;86.87
65329;BME280;51941;52.210;5.158;2022-10-31T00:56:59;102029.00;;;11.74;86.93
65329;BME280;51941;52.210;5.158;2022-10-31T00:59:26;102031.25;;;11.71;87.08
65329;BME280;51941;52.210;5.158;2022-10-31T01:01:52;102029.81;;;11.68;87.01
65329;BME280;51941;52.210;5.158;2022-10-31T01:04:20;102038.81;;;11.67;87.05
65329;BME280;51941;52.210;5.158;2022-10-31T01:06:48;102032.91;;;11.65;86.93
65329;BME280;51941;52.210;5.158;2022-10-31T01:09:15;102028.00;;;11.62;86.79
65329;BME280;51941;52.210;5.158;2022-10-31T01:11:42;102031.06;;;11.59;86.71
65329;BME280;51941;52.210;5.158;2022-10-31T01:14:10;102030.50;;;11.57;86.83
65329;BME280;51941;52.210;5.158;2022-10-31T01:16:37;102031.72;;;11.55;87.02
65329;BME280;51941;52.210;5.158;2022-10-31T01:19:04;102035.38;;;11.54;87.01
65329;BME280;51941;52.210;5.158;2022-10-31T01:21:30;102024.78;;;11.54;87.15
65329;BME280;51941;52.210;5.158;2022-10-31T01:23:58;102023.13;;;11.53;87.23
65329;BME280;51941;52.210;5.158;2022-10-31T01:26:26;102018.84;;;11.52;87.25
65329;BME280;51941;52.210;5.158;2022-10-31T01:28:54;102013.16;;;11.48;87.42
65329;BME280;51941;52.210;5.158;2022-10-31T01:31:26;102013.56;;;11.45;87.24
65329;BME280;51941;52.210;5.158;2022-10-31T01:33:53;101996.88;;;11.38;87.68
65329;BME280;51941;52.210;5.158;2022-10-31T01:36:22;101995.25;;;11.37;87.26
65329;BME280;51941;52.210;5.158;2022-10-31T01:38:51;102008.06;;;11.33;87.44
65329;BME280;51941;52.210;5.158;2022-10-31T01:41:21;102010.56;;;11.28;87.64
65329;BME280;51941;52.210;5.158;2022-10-31T01:43:50;102008.50;;;11.24;87.54
65329;BME280;51941;52.210;5.158;2022-10-31T01:46:20;101999.56;;;11.18;87.56
65329;BME280;51941;52.210;5.158;2022-10-31T01:48:49;101981.00;;;11.05;87.76
65329;BME280;51941;52.210;5.158;2022-10-31T01:51:20;101996.50;;;11.08;87.51
65329;BME280;51941;52.210;5.158;2022-10-31T01:53:47;101897.28;;;10.45;87.69
65329;BME280;51941;52.210;5.158;2022-10-31T01:56:16;101993.47;;;11.04;87.60
65329;BME280;51941;52.210;5.158;2022-10-31T01:58:45;101965.34;;;10.90;87.56
65329;BME280;51941;52.210;5.158;2022-10-31T02:01:16;101997.53;;;11.00;87.52
65329;BME280;51941;52.210;5.158;2022-10-31T02:03:44;101964.53;;;10.83;87.41
65329;BME280;51941;52.210;5.158;2022-10-31T02:06:21;101994.47;;;10.97;87.67
65329;BME280;51941;52.210;5.158;2022-10-31T02:08:55;101960.00;;;10.70;87.86
65329;BME280;51941;52.210;5.158;2022-10-31T02:11:24;101971.47;;;10.78;87.86
65329;BME280;51941;52.210;5.158;2022-10-31T02:13:52;101987.53;;;10.89;87.84
65329;BME280;51941;52.210;5.158;2022-10-31T02:16:21;101992.25;;;10.87;87.75
65329;BME280;51941;52.210;5.158;2022-10-31T02:18:48;101991.84;;;10.84;87.89
65329;BME280;51941;52.210;5.158;2022-10-31T02:21:19;101944.53;;;10.48;87.83
65329;BME280;51941;52.210;5.158;2022-10-31T02:24:18;101992.44;;;10.79;87.92
65329;BME280;51941;52.210;5.158;2022-10-31T02:26:54;101976.72;;;10.71;87.99
65329;BME280;51941;52.210;5.158;2022-10-31T02:32:37;101985.09;;;10.68;87.87
65329;BME280;51941;52.210;5.158;2022-10-31T02:35:13;101974.69;;;10.60;87.68
65329;BME280;51941;52.210;5.158;2022-10-31T02:37:49;101988.75;;;10.67;87.56
65329;BME280;51941;52.210;5.158;2022-10-31T02:40:21;101980.38;;;10.63;87.62
65329;BME280;51941;52.210;5.158;2022-10-31T02:43:19;101987.94;;;10.60;87.66
65329;BME280;51941;52.210;5.158;2022-10-31T02:45:51;101988.31;;;10.57;87.72
65329;BME280;51941;52.210;5.158;2022-10-31T02:48:26;101987.91;;;10.53;87.73
65329;BME280;51941;52.210;5.158;2022-10-31T02:50:56;101989.13;;;10.51;87.72
65329;BME280;51941;52.210;5.158;2022-10-31T02:53:24;101988.53;;;10.49;87.74
65329;BME280;51941;52.210;5.158;2022-10-31T02:55:57;101995.03;;;10.46;88.04
65329;BME280;51941;52.210;5.158;2022-10-31T02:58:29;101993.81;;;10.42;88.15
65329;BME280;51941;52.210;5.158;2022-10-31T03:04:23;101972.78;;;10.21;88.25
65329;BME280;51941;52.210;5.158;2022-10-31T03:07:01;101980.13;;;10.25;88.29
65329;BME280;51941;52.210;5.158;2022-10-31T03:09:34;101986.66;;;10.29;88.15
65329;BME280;51941;52.210;5.158;2022-10-31T03:12:07;101992.31;;;10.26;88.24
65329;BME280;51941;52.210;5.158;2022-10-31T03:14:41;101987.25;;;10.25;88.13
65329;BME280;51941;52.210;5.158;2022-10-31T03:17:12;101990.09;;;10.23;88.02
65329;BME280;51941;52.210;5.158;2022-10-31T03:19:45;101959.13;;;10.04;88.20
65329;BME280;51941;52.210;5.158;2022-10-31T03:22:17;101994.16;;;10.19;88.06
65329;BME280;51941;52.210;5.158;2022-10-31T03:24:47;101995.16;;;10.18;87.98
65329;BME280;51941;52.210;5.158;2022-10-31T03:27:18;101990.28;;;10.15;88.20
65329;BME280;51941;52.210;5.158;2022-10-31T03:29:49;101993.31;;;10.12;88.35
65329;BME280;51941;52.210;5.158;2022-10-31T03:32:18;101994.53;;;10.10;88.35
65329;BME280;51941;52.210;5.158;2022-10-31T03:34:48;101989.84;;;10.05;88.31
65329;BME280;51941;52.210;5.158;2022-10-31T03:37:18;101990.47;;;10.07;88.30
65329;BME280;51941;52.210;5.158;2022-10-31T03:39:48;101998.19;;;10.09;88.57
65329;BME280;51941;52.210;5.158;2022-10-31T03:42:23;101990.66;;;10.06;88.62
65329;BME280;51941;52.210;5.158;2022-10-31T03:44:53;101983.72;;;9.98;88.48
65329;BME280;51941;52.210;5.158;2022-10-31T03:47:23;101938.44;;;9.67;88.42
65329;BME280;51941;52.210;5.158;2022-10-31T03:49:51;102001.66;;;10.09;88.60
65329;BME280;51941;52.210;5.158;2022-10-31T03:52:23;102002.66;;;10.08;88.54
65329;BME280;51941;52.210;5.158;2022-10-31T03:54:54;102000.00;;;10.08;88.47
65329;BME280;51941;52.210;5.158;2022-10-31T03:57:26;102011.41;;;10.09;88.63
65329;BME280;51941;52.210;5.158;2022-10-31T03:59:58;102006.34;;;10.07;88.44
65329;BME280;51941;52.210;5.158;2022-10-31T04:02:29;102007.16;;;10.08;88.52
65329;BME280;51941;52.210;5.158;2022-10-31T04:04:59;102009.00;;;10.07;88.66
65329;BME280;51941;52.210;5.158;2022-10-31T04:07:32;101998.59;;;10.06;88.65
65329;BME280;51941;52.210;5.158;2022-10-31T04:10:02;102010.19;;;10.05;88.80
65329;BME280;51941;52.210;5.158;2022-10-31T04:12:32;102000.63;;;10.04;88.92
65329;BME280;51941;52.210;5.158;2022-10-31T04:15:14;102004.28;;;10.03;88.89
65329;BME280;51941;52.210;5.158;2022-10-31T04:17:44;102002.63;;;10.02;89.02
65329;BME280;51941;52.210;5.158;2022-10-31T04:20:15;102000.19;;;10.00;89.28
65329;BME280;51941;52.210;5.158;2022-10-31T04:22:41;101994.31;;;9.98;89.15
65329;BME280;51941;52.210;5.158;2022-10-31T04:25:08;101981.84;;;9.92;89.08
65329;BME280;51941;52.210;5.158;2022-10-31T04:27:37;101993.47;;;9.98;89.06
65329;BME280;51941;52.210;5.158;2022-10-31T04:30:07;101996.94;;;9.98;89.24
65329;BME280;51941;52.210;5.158;2022-10-31T04:32:38;101987.19;;;9.99;89.22
65329;BME280;51941;52.210;5.158;2022-10-31T04:35:05;101996.94;;;9.98;89.03
65329;BME280;51941;52.210;5.158;2022-10-31T04:37:33;101997.53;;;10.00;89.25
65329;BME280;51941;52.210;5.158;2022-10-31T04:40:02;101979.00;;;9.87;89.22
65329;BME280;51941;52.210;5.158;2022-10-31T04:42:45;101991.25;;;10.01;89.10
65329;BME280;51941;52.210;5.158;2022-10-31T04:45:12;101995.72;;;10.01;89.22
65329;BME280;51941;52.210;5.158;2022-10-31T04:47:40;102004.66;;;10.00;89.37
65329;BME280;51941;52.210;5.158;2022-10-31T04:50:07;101998.59;;;9.99;89.19
65329;BME280;51941;52.210;5.158;2022-10-31T04:52:41;102003.25;;;9.97;89.49
65329;BME280;51941;52.210;5.158;2022-10-31T04:55:10;101997.53;;;9.93;89.23
65329;BME280;51941;52.210;5.158;2022-10-31T04:57:56;101992.44;;;9.92;89.22
65329;BME280;51941;52.210;5.158;2022-10-31T05:00:24;102001.59;;;9.89;89.56
65329;BME280;51941;52.210;5.158;2022-10-31T05:02:52;101996.50;;;9.88;89.46
65329;BME280;51941;52.210;5.158;2022-10-31T05:05:21;101991.59;;;9.85;89.44
65329;BME280;51941;52.210;5.158;2022-10-31T05:07:51;101991.59;;;9.85;89.54
65329;BME280;51941;52.210;5.158;2022-10-31T05:10:21;101996.88;;;9.85;89.47
65329;BME280;51941;52.210;5.158;2022-10-31T05:12:51;101986.31;;;9.85;89.53
65329;BME280;51941;52.210;5.158;2022-10-31T05:15:27;101986.28;;;9.78;89.46
65329;BME280;51941;52.210;5.158;2022-10-31T05:18:13;102000.72;;;9.82;89.62
65329;BME280;51941;52.210;5.158;2022-10-31T05:20:58;101994.03;;;9.80;89.57
65329;BME280;51941;52.210;5.158;2022-10-31T05:23:36;101994.84;;;9.80;89.88
65329;BME280;51941;52.210;5.158;2022-10-31T05:26:05;101990.56;;;9.79;89.72
65329;BME280;51941;52.210;5.158;2022-10-31T05:28:33;101987.91;;;9.79;89.86
65329;BME280;51941;52.210;5.158;2022-10-31T05:31:01;101984.47;;;9.79;89.77
65329;BME280;51941;52.210;5.158;2022-10-31T05:33:28;101988.53;;;9.81;90.01
65329;BME280;51941;52.210;5.158;2022-10-31T05:36:23;101968.78;;;9.77;89.88
65329;BME280;51941;52.210;5.158;2022-10-31T05:38:58;101971.84;;;9.81;89.89
65329;BME280;51941;52.210;5.158;2022-10-31T05:41:38;101968.19;;;9.82;90.07
65329;BME280;51941;52.210;5.158;2022-10-31T05:44:12;101956.81;;;9.81;89.80
65329;BME280;51941;52.210;5.158;2022-10-31T05:46:58;101960.47;;;9.80;89.93
65329;BME280;51941;52.210;5.158;2022-10-31T05:49:31;101966.75;;;9.79;89.82
65329;BME280;51941;52.210;5.158;2022-10-31T05:52:16;101959.22;;;9.76;89.78
65329;BME280;51941;52.210;5.158;2022-10-31T05:54:53;101950.88;;;9.73;90.14
65329;BME280;51941;52.210;5.158;2022-10-31T05:57:19;101943.53;;;9.68;89.98
65329;BME280;51941;52.210;5.158;2022-10-31T05:59:47;101952.09;;;9.70;90.09
65329;BME280;51941;52.210;5.158;2022-10-31T06:02:13;101950.25;;;9.71;90.08
65329;BME280;51941;52.210;5.158;2022-10-31T06:04:58;101951.91;;;9.72;90.26
65329;BME280;51941;52.210;5.158;2022-10-31T06:07:26;101956.16;;;9.73;90.20
65329;BME280;51941;52.210;5.158;2022-10-31T06:09:54;101926.59;;;9.56;90.22
65329;BME280;51941;52.210;5.158;2022-10-31T06:12:21;101941.91;;;9.74;90.12
65329;BME280;51941;52.210;5.158;2022-10-31T06:15:10;101950.47;;;9.76;90.33
65329;BME280;51941;52.210;5.158;2022-10-31T06:17:37;101951.09;;;9.78;90.33
65329;BME280;51941;52.210;5.158;2022-10-31T06:20:23;101951.91;;;9.78;90.29
65329;BME280;51941;52.210;5.158;2022-10-31T06:23:16;101951.91;;;9.78;90.34
65329;BME280;51941;52.210;5.158;2022-10-31T06:25:49;101947.25;;;9.80;90.59
65329;BME280;51941;52.210;5.158;2022-10-31T06:28:16;101967.16;;;9.83;90.96
65329;BME280;51941;52.210;5.158;2022-10-31T06:31:06;101950.72;;;9.81;90.79
65329;BME280;51941;52.210;5.158;2022-10-31T06:33:33;101958.84;;;9.86;90.80
65329;BME280;51941;52.210;5.158;2022-10-31T06:36:01;101963.94;;;9.87;90.88
65329;BME280;51941;52.210;5.158;2022-10-31T06:38:28;101955.59;;;9.84;90.76
65329;BME280;51941;52.210;5.158;2022-10-31T06:40:57;101971.69;;;9.89;91.01
65329;BME280;51941;52.210;5.158;2022-10-31T06:43:25;101969.03;;;9.89;91.02
65329;BME280;51941;52.210;5.158;2022-10-31T06:46:10;101976.56;;;9.92;91.03
65329;BME280;51941;52.210;5.158;2022-10-31T06:48:57;101970.06;;;9.94;91.31
65329;BME280;51941;52.210;5.158;2022-10-31T06:51:35;101974.97;;;9.98;91.14
65329;BME280;51941;52.210;5.158;2022-10-31T06:54:01;101977.81;;;10.03;91.10
65329;BME280;51941;52.210;5.158;2022-10-31T06:56:29;101974.78;;;10.06;91.23
65329;BME280;51941;52.210;5.158;2022-10-31T06:58:57;101974.38;;;10.09;91.33
65329;BME280;51941;52.210;5.158;2022-10-31T07:01:53;101979.09;;;10.13;91.44
65329;BME280;51941;52.210;5.158;2022-10-31T07:04:20;101978.69;;;10.16;91.62
65329;BME280;51941;52.210;5.158;2022-10-31T07:06:50;101977.88;;;10.22;91.61
65329;BME280;51941;52.210;5.158;2022-10-31T07:09:18;101979.09;;;10.26;91.60
65329;BME280;51941;52.210;5.158;2022-10-31T07:11:46;101973.22;;;10.31;91.67
65329;BME280;51941;52.210;5.158;2022-10-31T07:14:14;101969.94;;;10.29;91.58
65329;BME280;51941;52.210;5.158;2022-10-31T07:16:41;101967.09;;;10.30;91.62
65329;BME280;51941;52.210;5.158;2022-10-31T07:19:10;101977.69;;;10.37;91.80
65329;BME280;51941;52.210;5.158;2022-10-31T07:21:37;101971.59;;;10.37;91.82
65329;BME280;51941;52.210;5.158;2022-10-31T07:24:04;101978.31;;;10.46;91.70
65329;BME280;51941;52.210;5.158;2022-10-31T07:26:37;101983.00;;;10.44;91.68
65329;BME280;51941;52.210;5.158;2022-10-31T07:29:05;101997.91;;;10.51;91.82
65329;BME280;51941;52.210;5.158;2022-10-31T07:31:32;101995.44;;;10.56;92.02
65329;BME280;51941;52.210;5.158;2022-10-31T07:34:06;102002.78;;;10.61;92.13
65329;BME280;51941;52.210;5.158;2022-10-31T07:36:51;101995.25;;;10.64;92.43
65329;BME280;51941;52.210;5.158;2022-10-31T07:39:19;101990.97;;;10.70;92.58
65329;BME280;51941;52.210;5.158;2022-10-31T07:41:45;101935.56;;;10.36;92.52
65329;BME280;51941;52.210;5.158;2022-10-31T07:44:18;101993.66;;;10.77;92.48
65329;BME280;51941;52.210;5.158;2022-10-31T07:47:03;101958.19;;;10.58;92.58
65329;BME280;51941;52.210;5.158;2022-10-31T07:49:50;102003.25;;;10.84;92.79
65329;BME280;51941;52.210;5.158;2022-10-31T07:52:36;101984.47;;;10.79;92.62
65329;BME280;51941;52.210;5.158;2022-10-31T07:55:21;102007.31;;;11.00;92.74
65329;BME280;51941;52.210;5.158;2022-10-31T07:57:55;102004.44;;;11.08;92.62
65329;BME280;51941;52.210;5.158;2022-10-31T08:00:23;102002.22;;;11.12;92.81
65329;BME280;51941;52.210;5.158;2022-10-31T08:02:56;101984.91;;;11.02;92.78
65329;BME280;51941;52.210;5.158;2022-10-31T08:05:43;102017.47;;;11.16;93.13
65329;BME280;51941;52.210;5.158;2022-10-31T08:08:29;102016.28;;;11.19;92.90
65329;BME280;51941;52.210;5.158;2022-10-31T08:10:57;102022.19;;;11.21;92.65
65329;BME280;51941;52.210;5.158;2022-10-31T08:13:24;101969.22;;;10.94;92.75
65329;BME280;51941;52.210;5.158;2022-10-31T08:15:58;102024.00;;;11.27;92.92
65329;BME280;51941;52.210;5.158;2022-10-31T08:18:30;102025.00;;;11.32;93.32
65329;BME280;51941;52.210;5.158;2022-10-31T08:20:57;102003.81;;;11.26;93.03
65329;BME280;51941;52.210;5.158;2022-10-31T08:23:24;101963.66;;;11.16;93.15
65329;BME280;51941;52.210;5.158;2022-10-31T08:25:53;102023.97;;;11.47;93.11
65329;BME280;51941;52.210;5.158;2022-10-31T08:28:22;102017.22;;;11.51;93.11
65329;BME280;51941;52.210;5.158;2022-10-31T08:30:51;102007.03;;;11.54;93.07
65329;BME280;51941;52.210;5.158;2022-10-31T08:33:41;101997.41;;;11.60;93.15
65329;BME280;51941;52.210;5.158;2022-10-31T08:36:27;101973.59;;;11.47;93.02
65329;BME280;51941;52.210;5.158;2022-10-31T08:39:10;101995.75;;;11.72;93.03
65329;BME280;51941;52.210;5.158;2022-10-31T08:41:38;101996.31;;;11.80;93.06
65329;BME280;51941;52.210;5.158;2022-10-31T08:44:10;101990.16;;;11.87;92.96
65329;BME280;51941;52.210;5.158;2022-10-31T08:46:36;101991.19;;;11.92;92.85
65329;BME280;51941;52.210;5.158;2022-10-31T08:49:05;101992.59;;;11.95;93.03
65329;BME280;51941;52.210;5.158;2022-10-31T08:51:32;101987.84;;;12.03;93.08
65329;BME280;51941;52.210;5.158;2022-10-31T08:54:00;101968.09;;;11.99;93.21
65329;BME280;51941;52.210;5.158;2022-10-31T08:56:37;101976.56;;;12.21;93.02
65329;BME280;51941;52.210;5.158;2022-10-31T08:59:13;101958.63;;;12.16;93.08
65329;BME280;51941;52.210;5.158;2022-10-31T09:02:00;101968.53;;;12.34;92.87
65329;BME280;51941;52.210;5.158;2022-10-31T09:04:29;101966.22;;;12.38;92.99
65329;BME280;51941;52.210;5.158;2022-10-31T09:06:57;101963.75;;;12.43;92.84
65329;BME280;51941;52.210;5.158;2022-10-31T09:09:24;101966.75;;;12.53;92.63
65329;BME280;51941;52.210;5.158;2022-10-31T09:11:51;101972.63;;;12.62;92.90
65329;BME280;51941;52.210;5.158;2022-10-31T09:14:36;101970.28;;;12.72;92.97
65329;BME280;51941;52.210;5.158;2022-10-31T09:17:19;101970.03;;;12.80;92.96
65329;BME280;51941;52.210;5.158;2022-10-31T09:20:08;101960.88;;;12.94;93.16
65329;BME280;51941;52.210;5.158;2022-10-31T09:22:35;101956.50;;;13.06;92.93
65329;BME280;51941;52.210;5.158;2022-10-31T09:25:02;101964.09;;;13.21;92.90
65329;BME280;51941;52.210;5.158;2022-10-31T09:27:29;101951.13;;;13.31;92.82
65329;BME280;51941;52.210;5.158;2022-10-31T09:29:56;101952.69;;;13.39;92.91
65329;BME280;51941;52.210;5.158;2022-10-31T09:32:23;101947.06;;;13.47;92.55
65329;BME280;51941;52.210;5.158;2022-10-31T09:34:50;101946.16;;;13.53;92.52
65329;BME280;51941;52.210;5.158;2022-10-31T09:37:20;101950.63;;;13.59;92.42
65329;BME280;51941;52.210;5.158;2022-10-31T09:39:47;101932.94;;;13.64;92.23
65329;BME280;51941;52.210;5.158;2022-10-31T09:42:55;101933.66;;;13.72;92.07
65329;BME280;51941;52.210;5.158;2022-10-31T09:45:30;101936.91;;;13.74;92.05
65329;BME280;51941;52.210;5.158;2022-10-31T09:48:11;101942.06;;;13.87;91.92
65329;BME280;51941;52.210;5.158;2022-10-31T09:51:06;101948.94;;;13.94;91.88
65329;BME280;51941;52.210;5.158;2022-10-31T09:53:49;101938.53;;;14.04;91.76
65329;BME280;51941;52.210;5.158;2022-10-31T09:56:22;101938.34;;;14.18;91.97
65329;BME280;51941;52.210;5.158;2022-10-31T09:58:55;101936.28;;;14.31;91.79
65329;BME280;51941;52.210;5.158;2022-10-31T10:01:32;101923.38;;;14.47;91.69
65329;BME280;51941;52.210;5.158;2022-10-31T10:04:03;101930.34;;;14.59;91.42
65329;BME280;51941;52.210;5.158;2022-10-31T10:06:57;101916.91;;;14.77;90.96
65329;BME280;51941;52.210;5.158;2022-10-31T10:09:44;101915.06;;;14.90;90.71
65329;BME280;51941;52.210;5.158;2022-10-31T10:12:47;101909.84;;;14.95;90.27
65329;BME280;51941;52.210;5.158;2022-10-31T10:15:31;101912.50;;;15.06;89.77
65329;BME280;51941;52.210;5.158;2022-10-31T10:18:07;101908.31;;;15.10;89.44
65329;BME280;51941;52.210;5.158;2022-10-31T10:20:40;101906.81;;;15.14;88.89
65329;BME280;51941;52.210;5.158;2022-10-31T10:23:34;101905.53;;;15.17;88.31
65329;BME280;51941;52.210;5.158;2022-10-31T10:26:20;101907.72;;;15.20;88.00
65329;BME280;51941;52.210;5.158;2022-10-31T10:28:49;101905.41;;;15.24;87.82
65329;BME280;51941;52.210;5.158;2022-10-31T10:31:22;101884.53;;;15.21;87.59
65329;BME280;51941;52.210;5.158;2022-10-31T10:34:00;101902.56;;;15.42;87.19
65329;BME280;51941;52.210;5.158;2022-10-31T10:36:32;101901.84;;;15.46;86.60
65329;BME280;51941;52.210;5.158;2022-10-31T10:39:05;101892.44;;;15.55;86.39
65329;BME280;51941;52.210;5.158;2022-10-31T10:41:37;101886.50;;;15.65;85.91
65329;BME280;51941;52.210;5.158;2022-10-31T10:44:08;101859.59;;;15.55;85.58
65329;BME280;51941;52.210;5.158;2022-10-31T10:46:41;101875.03;;;15.81;85.58
65329;BME280;51941;52.210;5.158;2022-10-31T10:49:31;101861.56;;;15.88;84.82
65329;BME280;51941;52.210;5.158;2022-10-31T10:52:01;101857.94;;;15.94;84.79
65329;BME280;51941;52.210;5.158;2022-10-31T10:54:41;101855.34;;;15.99;84.26
65329;BME280;51941;52.210;5.158;2022-10-31T10:57:21;101845.81;;;16.03;83.16
65329;BME280;51941;52.210;5.158;2022-10-31T10:59:48;101841.03;;;16.05;82.57
65329;BME280;51941;52.210;5.158;2022-10-31T11:02:17;101830.47;;;16.15;82.94
65329;BME280;51941;52.210;5.158;2022-10-31T11:04:46;101827.66;;;16.22;82.65
65329;BME280;51941;52.210;5.158;2022-10-31T11:07:14;101822.72;;;16.30;82.06
65329;BME280;51941;52.210;5.158;2022-10-31T11:09:41;101816.41;;;16.37;82.26
65329;BME280;51941;52.210;5.158;2022-10-31T11:12:09;101813.25;;;16.40;81.71
65329;BME280;51941;52.210;5.158;2022-10-31T11:14:45;101798.84;;;16.41;81.12
65329;BME280;51941;52.210;5.158;2022-10-31T11:17:26;101788.63;;;16.38;80.85
65329;BME280;51941;52.210;5.158;2022-10-31T11:20:05;101783.53;;;16.36;80.53
65329;BME280;51941;52.210;5.158;2022-10-31T11:22:32;101770.91;;;16.32;80.33
65329;BME280;51941;52.210;5.158;2022-10-31T11:24:59;101782.13;;;16.34;80.35
65329;BME280;51941;52.210;5.158;2022-10-31T11:27:26;101777.78;;;16.27;80.54
65329;BME280;51941;52.210;5.158;2022-10-31T11:30:04;101786.38;;;16.29;80.61
65329;BME280;51941;52.210;5.158;2022-10-31T11:32:31;101793.47;;;16.24;80.24
65329;BME280;51941;52.210;5.158;2022-10-31T11:35:01;101788.22;;;16.29;80.20
65329;BME280;51941;52.210;5.158;2022-10-31T11:37:30;101788.56;;;16.33;80.20
65329;BME280;51941;52.210;5.158;2022-10-31T11:40:03;101787.56;;;16.39;80.36
65329;BME280;51941;52.210;5.158;2022-10-31T11:46:23;101776.34;;;16.58;80.07
65329;BME280;51941;52.210;5.158;2022-10-31T11:48:54;101762.72;;;16.60;79.71
65329;BME280;51941;52.210;5.158;2022-10-31T11:58:42;101740.81;;;16.58;79.16
65329;BME280;51941;52.210;5.158;2022-10-31T12:01:24;101705.53;;;16.39;78.77
65329;BME280;51941;52.210;5.158;2022-10-31T12:03:57;101718.28;;;16.54;79.37
65329;BME280;51941;52.210;5.158;2022-10-31T12:06:29;101714.31;;;16.56;79.15
65329;BME280;51941;52.210;5.158;2022-10-31T12:08:59;101672.34;;;16.35;79.19
65329;BME280;51941;52.210;5.158;2022-10-31T12:11:47;101703.47;;;16.63;79.37
65329;BME280;51941;52.210;5.158;2022-10-31T12:14:28;101694.84;;;16.61;78.86
65329;BME280;51941;52.210;5.158;2022-10-31T12:17:04;101699.47;;;16.65;79.02
65329;BME280;51941;52.210;5.158;2022-10-31T12:19:38;101700.09;;;16.73;79.01
65329;BME280;51941;52.210;5.158;2022-10-31T12:22:13;101696.66;;;16.77;78.77
65329;BME280;51941;52.210;5.158;2022-10-31T12:24:58;101700.78;;;16.85;78.73
65329;BME280;51941;52.210;5.158;2022-10-31T12:27:37;101689.63;;;16.93;78.76
65329;BME280;51941;52.210;5.158;2022-10-31T12:30:15;101677.66;;;17.00;78.54
65329;BME280;51941;52.210;5.158;2022-10-31T12:32:57;101632.31;;;16.84;78.40
65329;BME280;51941;52.210;5.158;2022-10-31T12:35:44;101666.78;;;17.12;77.67
65329;BME280;51941;52.210;5.158;2022-10-31T12:38:38;101662.81;;;17.15;77.66
65329;BME280;51941;52.210;5.158;2022-10-31T12:41:25;101667.66;;;17.18;77.62
65329;BME280;51941;52.210;5.158;2022-10-31T12:44:00;101646.50;;;17.16;77.69
65329;BME280;51941;52.210;5.158;2022-10-31T12:46:50;101645.47;;;17.22;77.35
65329;BME280;51941;52.210;5.158;2022-10-31T12:49:38;101631.03;;;17.23;77.64
65329;BME280;51941;52.210;5.158;2022-10-31T12:52:25;101631.84;;;17.24;77.41
65329;BME280;51941;52.210;5.158;2022-10-31T12:55:08;101630.28;;;17.28;77.50
65329;BME280;51941;52.210;5.158;2022-10-31T12:57:39;101539.44;;;16.74;77.20
65329;BME280;51941;52.210;5.158;2022-10-31T13:00:12;101612.38;;;17.28;77.22
65329;BME280;51941;52.210;5.158;2022-10-31T13:02:47;101605.44;;;17.32;77.04
65329;BME280;51941;52.210;5.158;2022-10-31T13:05:22;101601.47;;;17.40;76.94
65329;BME280;51941;52.210;5.158;2022-10-31T13:07:54;101594.25;;;17.40;76.58
65329;BME280;51941;52.210;5.158;2022-10-31T13:10:25;101597.16;;;17.39;76.80
65329;BME280;51941;52.210;5.158;2022-10-31T13:13:00;101593.44;;;17.40;76.49
65329;BME280;51941;52.210;5.158;2022-10-31T13:15:31;101577.91;;;17.37;76.52
65329;BME280;51941;52.210;5.158;2022-10-31T13:18:03;101574.69;;;17.35;76.46
65329;BME280;51941;52.210;5.158;2022-10-31T13:20:37;101575.19;;;17.32;76.33
65329;BME280;51941;52.210;5.158;2022-10-31T13:23:09;101562.06;;;17.30;76.69
65329;BME280;51941;52.210;5.158;2022-10-31T13:25:40;101486.31;;;16.83;76.55
65329;BME280;51941;52.210;5.158;2022-10-31T13:28:21;101557.50;;;17.26;76.29
65329;BME280;51941;52.210;5.158;2022-10-31T13:30:51;101543.81;;;17.22;76.30
65329;BME280;51941;52.210;5.158;2022-10-31T13:33:20;101539.56;;;17.26;76.46
65329;BME280;51941;52.210;5.158;2022-10-31T13:35:53;101542.19;;;17.21;76.38
65329;BME280;51941;52.210;5.158;2022-10-31T13:38:28;101536.84;;;17.21;76.49
65329;BME280;51941;52.210;5.158;2022-10-31T13:41:00;101498.72;;;16.99;76.49